S/y Surama — ZGEI9 — position and weather

sailwx.info

Track history (hours):
 
Tides and Currents Weather Stations Pressure Air Temp Water Temp Dewpoint Dewpoint Depression Visibility Wind Speed Wind Dir Waves Ship Positions

S/y Surama

Last reported at 2017-Sep-24 10:42 UTC. Time now 2017-Sep-25 06:27 UTC.
Position N 40°04' E 003°52'.

Length 40 m; draft 3 m.

Type: Sailing vessel. MMSI: 319073400.

Date/timePositionNaut miles runAvg speedWind from/ knotsBaromVisibWave heightAir tempDewpointWater temp
2017-Sep-24 10:42N 40°04' E 003°52'2 8.2
2017-Sep-24 10:28N 40°03' E 003°49'4 6.5
2017-Sep-24 09:53N 39°60' E 003°48'1 0.0
2017-Sep-23 22:29N 39°60' E 003°49'2 4.9
2017-Sep-23 22:00N 39°59' E 003°46'510.7
2017-Sep-23 21:30N 39°59' E 003°39'510.7
2017-Sep-23 21:00N 39°59' E 003°32'48 1.1
2017-Sep-22 01:57N 39°34' E 002°38'0 0.0
2017-Sep-22 01:28N 39°34' E 002°38'0 0.0
2017-Sep-22 01:00N 39°34' E 002°38'0 0.0
2017-Sep-22 00:30N 39°34' E 002°38'0 0.0
2017-Sep-22 00:00N 39°34' E 002°38'0 0.0
2017-Sep-21 23:28N 39°34' E 002°38'0 0.0
2017-Sep-21 23:00N 39°34' E 002°38'0 0.0
2017-Sep-21 22:30N 39°34' E 002°38'0 0.0
2017-Sep-21 22:00N 39°34' E 002°38'0 0.0
2017-Sep-21 21:28N 39°34' E 002°38'0 0.0
2017-Sep-21 20:53N 39°34' E 002°38'0 0.0
2017-Sep-21 20:21N 39°34' E 002°38'0 0.0
2017-Sep-21 20:00N 39°34' E 002°38'0 0.0
2017-Sep-21 19:30N 39°34' E 002°38'0 0.0
2017-Sep-21 19:00N 39°34' E 002°38'0 0.0
2017-Sep-21 18:30N 39°34' E 002°38'0 0.0
2017-Sep-21 18:00N 39°34' E 002°38'0 0.0
2017-Sep-21 17:28N 39°34' E 002°38'0 0.0
2017-Sep-21 16:58N 39°34' E 002°38'0 0.0
2017-Sep-21 16:30N 39°34' E 002°38'0 0.0
2017-Sep-21 16:00N 39°34' E 002°38'0 0.0
2017-Sep-21 15:26N 39°34' E 002°38'0 0.0
2017-Sep-21 14:58N 39°34' E 002°38'0 0.0
2017-Sep-21 14:30N 39°34' E 002°38'0 0.0
2017-Sep-21 14:00N 39°34' E 002°38'0 0.0
2017-Sep-21 13:30N 39°34' E 002°38'0 0.0
2017-Sep-21 13:00N 39°34' E 002°38'0 0.0
2017-Sep-21 12:30N 39°34' E 002°38'0 0.0
2017-Sep-21 11:58N 39°34' E 002°38'0 0.0
2017-Sep-21 11:26N 39°34' E 002°38'0 0.0
2017-Sep-21 10:48N 39°34' E 002°38'0 0.0
2017-Sep-21 10:30N 39°34' E 002°38'0 0.0
2017-Sep-21 09:55N 39°34' E 002°38'0 0.0
2017-Sep-21 09:24N 39°34' E 002°38'0 0.0
2017-Sep-21 09:00N 39°34' E 002°38'0 0.0
2017-Sep-21 08:27N 39°34' E 002°38'0 0.0
2017-Sep-21 07:58N 39°34' E 002°38'0 0.0
2017-Sep-21 07:30N 39°34' E 002°38'0 0.0
2017-Sep-21 06:48N 39°34' E 002°38'0 0.0
2017-Sep-21 06:30N 39°34' E 002°38'0 0.0
2017-Sep-21 05:55N 39°34' E 002°38'0 0.0
2017-Sep-21 05:28N 39°34' E 002°38'0 0.0
2017-Sep-21 04:58N 39°34' E 002°38'0 0.0
2017-Sep-21 04:29N 39°34' E 002°38'0 0.0
2017-Sep-21 03:59N 39°34' E 002°38'0 0.0
2017-Sep-21 03:29N 39°34' E 002°38'0 0.0
2017-Sep-21 02:59N 39°34' E 002°38'0 0.0
2017-Sep-21 02:29N 39°34' E 002°38'0 0.0
2017-Sep-21 02:00N 39°34' E 002°38'0 0.0
2017-Sep-21 01:30N 39°34' E 002°38'0 0.0
2017-Sep-21 00:57N 39°34' E 002°38'0 0.0
2017-Sep-21 00:29N 39°34' E 002°38'0 0.0
2017-Sep-20 23:59N 39°34' E 002°38'0 0.0
2017-Sep-20 23:27N 39°34' E 002°38'0 0.0
2017-Sep-20 23:00N 39°34' E 002°38'0 0.0
2017-Sep-20 22:30N 39°34' E 002°38'0 0.0
2017-Sep-20 21:58N 39°34' E 002°38'0 0.0
2017-Sep-20 21:29N 39°34' E 002°38'0 0.0
2017-Sep-20 20:54N 39°34' E 002°38'0 0.0
2017-Sep-20 20:30N 39°34' E 002°38'0 0.0
2017-Sep-20 19:59N 39°34' E 002°38'0 0.0
2017-Sep-20 19:30N 39°34' E 002°38'0 0.0
2017-Sep-20 18:55N 39°34' E 002°38'0 0.0
2017-Sep-20 18:30N 39°34' E 002°38'0 0.0
2017-Sep-20 17:59N 39°34' E 002°38'0 0.0
2017-Sep-20 17:28N 39°34' E 002°38'0 0.0
2017-Sep-20 16:58N 39°34' E 002°38'0 0.0
2017-Sep-20 16:23N 39°34' E 002°38'0 0.0
2017-Sep-20 15:59N 39°34' E 002°38'0 0.0
2017-Sep-20 15:28N 39°34' E 002°38'0 0.0
2017-Sep-20 14:55N 39°34' E 002°38'0 0.0
2017-Sep-20 14:00N 39°34' E 002°38'0 0.0
2017-Sep-20 13:28N 39°34' E 002°38'0 0.0
2017-Sep-20 13:00N 39°34' E 002°38'0 0.0
2017-Sep-20 12:17N 39°34' E 002°38'0 0.0
2017-Sep-20 12:00N 39°34' E 002°38'0 0.0
2017-Sep-20 11:30N 39°34' E 002°38'0 0.0
2017-Sep-20 10:59N 39°34' E 002°38'0 0.0
2017-Sep-20 10:31N 39°34' E 002°38'0 0.0
2017-Sep-20 10:00N 39°34' E 002°38'0 0.0
2017-Sep-20 09:24N 39°34' E 002°38'0 0.0
2017-Sep-20 08:55N 39°34' E 002°38'0 0.0
2017-Sep-20 08:25N 39°34' E 002°38'0 0.0
2017-Sep-20 08:01N 39°34' E 002°38'0 0.0
2017-Sep-20 07:28N 39°34' E 002°38'0 0.0
2017-Sep-20 06:58N 39°34' E 002°38'0 0.0
2017-Sep-20 06:27N 39°34' E 002°38'0 0.0
2017-Sep-20 05:56N 39°34' E 002°38'0 0.0
2017-Sep-20 05:29N 39°34' E 002°38'0 0.0
2017-Sep-20 04:55N 39°34' E 002°38'0 0.0
2017-Sep-20 04:28N 39°34' E 002°38'0 0.0
2017-Sep-20 04:00N 39°34' E 002°38'0 0.0
2017-Sep-20 03:30N 39°34' E 002°38'0 0.0
2017-Sep-20 03:01N 39°34' E 002°38'0 0.0
2017-Sep-20 02:25N 39°34' E 002°38'0 0.0
2017-Sep-20 01:58N 39°34' E 002°38'0 0.0
2017-Sep-20 01:26N 39°34' E 002°38'0 0.0
2017-Sep-20 00:59N 39°34' E 002°38'0 0.0
2017-Sep-20 00:28N 39°34' E 002°38'0 0.0
2017-Sep-19 23:58N 39°34' E 002°38'0 0.0
2017-Sep-19 23:27N 39°34' E 002°38'0 0.0
2017-Sep-19 22:58N 39°34' E 002°38'0 0.0
2017-Sep-19 22:28N 39°34' E 002°38'0 0.0
2017-Sep-19 22:00N 39°34' E 002°38'0 0.0
2017-Sep-19 21:31N 39°34' E 002°38'0 0.0
2017-Sep-19 20:58N 39°34' E 002°38'0 0.0
2017-Sep-19 20:31N 39°34' E 002°38'0 0.0
2017-Sep-19 20:01N 39°34' E 002°38'0 0.0
2017-Sep-19 19:30N 39°34' E 002°38'0 0.0
2017-Sep-19 19:00N 39°34' E 002°38'0 0.0
2017-Sep-19 18:25N 39°34' E 002°38'0 0.0
2017-Sep-19 17:58N 39°34' E 002°38'0 0.0
2017-Sep-19 17:30N 39°34' E 002°38'0 0.0
2017-Sep-19 16:59N 39°34' E 002°38'0 0.0
2017-Sep-19 16:28N 39°34' E 002°38'0 0.0
2017-Sep-19 16:01N 39°34' E 002°38'0 0.0
2017-Sep-19 15:31N 39°34' E 002°38'0 0.0
2017-Sep-19 14:57N 39°34' E 002°38'0 0.0
2017-Sep-19 14:23N 39°34' E 002°38'0 0.0
2017-Sep-19 13:59N 39°34' E 002°38'0 0.0
2017-Sep-19 13:28N 39°34' E 002°38'0 0.0
2017-Sep-19 12:58N 39°34' E 002°38'0 0.0
2017-Sep-19 12:29N 39°34' E 002°38'0 0.0
2017-Sep-19 11:59N 39°34' E 002°38'0 0.0
2017-Sep-19 11:28N 39°34' E 002°38'0 0.0
2017-Sep-19 11:00N 39°34' E 002°38'0 0.0
2017-Sep-19 10:31N 39°34' E 002°38'0 0.0
2017-Sep-19 09:59N 39°34' E 002°38'0 0.0
2017-Sep-19 09:30N 39°34' E 002°38'0 0.0
2017-Sep-19 08:58N 39°34' E 002°38'0 0.0
2017-Sep-19 08:29N 39°34' E 002°38'0 0.0
2017-Sep-19 07:59N 39°34' E 002°38'0 0.0
2017-Sep-19 07:29N 39°34' E 002°38'0 0.0
2017-Sep-19 06:58N 39°34' E 002°38'0 0.0
2017-Sep-19 06:28N 39°34' E 002°38'0 0.0
2017-Sep-19 05:58N 39°34' E 002°38'0 0.0
2017-Sep-19 05:28N 39°34' E 002°38'0 0.0
2017-Sep-19 05:00N 39°34' E 002°38'0 0.0
2017-Sep-19 04:26N 39°34' E 002°38'0 0.0
2017-Sep-19 04:00N 39°34' E 002°38'0 0.0
2017-Sep-19 03:29N 39°34' E 002°38'0 0.0
2017-Sep-19 02:58N 39°34' E 002°38'0 0.0
2017-Sep-19 02:31N 39°34' E 002°38'0 0.0
2017-Sep-19 01:58N 39°34' E 002°38'0 0.0
2017-Sep-19 01:28N 39°34' E 002°38'0 0.0
2017-Sep-19 01:00N 39°34' E 002°38'0 0.0
2017-Sep-19 00:30N 39°34' E 002°38'0 0.0
2017-Sep-18 23:58N 39°34' E 002°38'0 0.0
2017-Sep-18 23:30N 39°34' E 002°38'0 0.0
2017-Sep-18 22:59N 39°34' E 002°38'0 0.0
2017-Sep-18 22:30N 39°34' E 002°38'0 0.0
2017-Sep-18 22:00N 39°34' E 002°38'0 0.0
2017-Sep-18 21:29N 39°34' E 002°38'0 0.0
2017-Sep-18 20:59N 39°34' E 002°38'0 0.0
2017-Sep-18 20:28N 39°34' E 002°38'0 0.0
2017-Sep-18 20:00N 39°34' E 002°38'0 0.0
2017-Sep-18 19:28N 39°34' E 002°38'0 0.0
2017-Sep-18 18:59N 39°34' E 002°38'0 0.0
2017-Sep-18 18:29N 39°34' E 002°38'0 0.0
2017-Sep-18 17:59N 39°34' E 002°38'0 0.0
2017-Sep-18 17:28N 39°34' E 002°38'0 0.0
2017-Sep-18 16:59N 39°34' E 002°38'0 0.0
2017-Sep-18 16:26N 39°34' E 002°38'0 0.0
2017-Sep-18 15:59N 39°34' E 002°38'0 0.0
2017-Sep-18 15:29N 39°34' E 002°38'0 0.0
2017-Sep-18 14:59N 39°34' E 002°38'0 0.0
2017-Sep-18 14:28N 39°34' E 002°38'0 0.0
2017-Sep-18 13:52N 39°34' E 002°38'0 0.0
2017-Sep-18 13:31N 39°34' E 002°38'0 0.0
2017-Sep-18 12:58N 39°34' E 002°38'0 0.0
2017-Sep-18 12:16N 39°34' E 002°38'0 0.0
2017-Sep-18 12:00N 39°34' E 002°38'0 0.0
2017-Sep-18 11:27N 39°34' E 002°38'0 0.0
2017-Sep-18 10:59N 39°34' E 002°38'0 0.0
2017-Sep-18 10:29N 39°34' E 002°38'0 0.0
2017-Sep-18 09:56N 39°34' E 002°38'0 0.0
2017-Sep-18 09:27N 39°34' E 002°38'0 0.0
2017-Sep-18 08:56N 39°34' E 002°38'0 0.0
2017-Sep-18 08:29N 39°34' E 002°38'0 0.0
2017-Sep-18 07:55N 39°34' E 002°38'0 0.0
2017-Sep-18 07:29N 39°34' E 002°38'0 0.0
2017-Sep-18 07:00N 39°34' E 002°38'0 0.0
2017-Sep-18 06:30N 39°34' E 002°38'0 0.0
2017-Sep-18 05:59N 39°34' E 002°38'0 0.0
2017-Sep-18 05:29N 39°34' E 002°38'0 0.0
2017-Sep-18 04:59N 39°34' E 002°38'0 0.0
2017-Sep-18 04:29N 39°34' E 002°38'0 0.0
2017-Sep-18 03:59N 39°34' E 002°38'0 0.0
2017-Sep-18 03:25N 39°34' E 002°38'0 0.0
2017-Sep-18 02:58N 39°34' E 002°38'0 0.0
2017-Sep-18 02:31N 39°34' E 002°38'0 0.0
2017-Sep-18 02:01N 39°34' E 002°38'0 0.0
2017-Sep-18 01:29N 39°34' E 002°38'0 0.0
2017-Sep-18 00:59N 39°34' E 002°38'0 0.0
2017-Sep-18 00:29N 39°34' E 002°38'0 0.0
2017-Sep-18 00:01N 39°34' E 002°38'0 0.0
2017-Sep-17 23:30N 39°34' E 002°38'0 0.0
2017-Sep-17 22:50N 39°34' E 002°38'0 0.0
2017-Sep-17 22:26N 39°34' E 002°38'0 0.0
2017-Sep-17 21:59N 39°34' E 002°38'0 0.0
2017-Sep-17 21:28N 39°34' E 002°38'0 0.0
2017-Sep-17 20:56N 39°34' E 002°38'0 0.0
2017-Sep-17 20:31N 39°34' E 002°38'0 0.0
2017-Sep-17 19:59N 39°34' E 002°38'0 0.0
2017-Sep-17 19:28N 39°34' E 002°38'0 0.0
2017-Sep-17 18:58N 39°34' E 002°38'0 0.0
2017-Sep-17 18:29N 39°34' E 002°38'0 0.0
2017-Sep-17 17:58N 39°34' E 002°38'0 0.0
2017-Sep-17 17:27N 39°34' E 002°38'0 0.0
2017-Sep-17 16:55N 39°34' E 002°38'0 0.0
2017-Sep-17 16:28N 39°34' E 002°38'0 0.0
2017-Sep-17 15:57N 39°34' E 002°38'0 0.0
2017-Sep-17 15:27N 39°34' E 002°38'0 0.0
2017-Sep-17 14:56N 39°34' E 002°38'0 0.0
2017-Sep-17 14:31N 39°34' E 002°38'0 0.0
2017-Sep-17 13:59N 39°34' E 002°38'0 0.0
2017-Sep-17 13:30N 39°34' E 002°38'0 0.0
2017-Sep-17 12:58N 39°34' E 002°38'0 0.0
2017-Sep-17 12:30N 39°34' E 002°38'0 0.0
2017-Sep-17 12:00N 39°34' E 002°38'0 0.0
2017-Sep-17 11:30N 39°34' E 002°38'0 0.0
2017-Sep-17 11:00N 39°34' E 002°38'0 0.0
2017-Sep-17 10:29N 39°34' E 002°38'0 0.0
2017-Sep-17 10:00N 39°34' E 002°38'0 0.0
2017-Sep-17 09:27N 39°34' E 002°38'0 0.0
2017-Sep-17 08:58N 39°34' E 002°38'0 0.0
2017-Sep-17 08:28N 39°34' E 002°38'0 0.0
2017-Sep-17 07:55N 39°34' E 002°38'0 0.0
2017-Sep-17 07:22N 39°34' E 002°38'0 0.0
2017-Sep-17 07:00N 39°34' E 002°38'0 0.0
2017-Sep-17 06:31N 39°34' E 002°38'0 0.0
2017-Sep-17 06:00N 39°34' E 002°38'0 0.0
2017-Sep-17 05:30N 39°34' E 002°38'0 0.0
2017-Sep-17 05:01N 39°34' E 002°38'0 0.0
2017-Sep-17 04:25N 39°34' E 002°38'0 0.0
2017-Sep-17 03:59N 39°34' E 002°38'0 0.0
2017-Sep-17 03:30N 39°34' E 002°38'0 0.0
2017-Sep-17 02:59N 39°34' E 002°38'0 0.0
2017-Sep-17 02:29N 39°34' E 002°38'0 0.0
2017-Sep-17 02:00N 39°34' E 002°38'0 0.0
2017-Sep-17 01:30N 39°34' E 002°38'0 0.0
2017-Sep-17 01:00N 39°34' E 002°38'0 0.0
2017-Sep-17 00:27N 39°34' E 002°38'0 0.0
2017-Sep-17 00:00N 39°34' E 002°38'0 0.0
2017-Sep-16 23:30N 39°34' E 002°38'0 0.0
2017-Sep-16 22:58N 39°34' E 002°38'0 0.0
2017-Sep-16 22:28N 39°34' E 002°38'0 0.0
2017-Sep-16 21:46N 39°34' E 002°38'0 0.0
2017-Sep-16 21:31N 39°34' E 002°38'0 0.0
2017-Sep-16 21:00N 39°34' E 002°38'0 0.0
2017-Sep-16 20:30N 39°34' E 002°38'0 0.0
2017-Sep-16 19:58N 39°34' E 002°38'0 0.0
2017-Sep-16 19:30N 39°34' E 002°38'0 0.0
2017-Sep-16 18:58N 39°34' E 002°38'0 0.0
2017-Sep-16 18:24N 39°34' E 002°38'0 0.0
2017-Sep-16 18:00N 39°34' E 002°38'0 0.0
2017-Sep-16 17:25N 39°34' E 002°38'0 0.0
2017-Sep-16 16:59N 39°34' E 002°38'0 0.0
2017-Sep-16 16:28N 39°34' E 002°38'0 0.0
2017-Sep-16 16:01N 39°34' E 002°38'0 0.0
2017-Sep-16 15:31N 39°34' E 002°38'0 0.0
2017-Sep-16 15:00N 39°34' E 002°38'0 0.0
2017-Sep-16 14:29N 39°34' E 002°38'0 0.0
2017-Sep-16 14:00N 39°34' E 002°38'0 0.0
2017-Sep-16 13:29N 39°34' E 002°38'0 0.0
2017-Sep-16 13:00N 39°34' E 002°38'0 0.0
2017-Sep-16 12:18N 39°34' E 002°38'0 0.0
2017-Sep-16 11:57N 39°34' E 002°38'0 0.0
2017-Sep-16 11:30N 39°34' E 002°38'0 0.0
2017-Sep-16 10:55N 39°34' E 002°38'0 0.0
2017-Sep-16 10:28N 39°34' E 002°38'0 0.0
2017-Sep-16 09:53N 39°34' E 002°38'0 0.0
2017-Sep-16 09:29N 39°34' E 002°38'0 0.0
2017-Sep-16 08:57N 39°34' E 002°38'0 0.0
2017-Sep-16 08:29N 39°34' E 002°38'0 0.0
2017-Sep-16 08:00N 39°34' E 002°38'0 0.0
2017-Sep-16 07:30N 39°34' E 002°38'0 0.0
2017-Sep-16 06:59N 39°34' E 002°38'0 0.0
2017-Sep-16 06:30N 39°34' E 002°38'0 0.0
2017-Sep-16 06:00N 39°34' E 002°38'0 0.0
2017-Sep-16 05:29N 39°34' E 002°38'0 0.0
2017-Sep-16 04:59N 39°34' E 002°38'0 0.0
2017-Sep-16 04:29N 39°34' E 002°38'0 0.0
2017-Sep-16 03:53N 39°34' E 002°38'0 0.0
2017-Sep-16 03:28N 39°34' E 002°38'0 0.0
2017-Sep-16 02:55N 39°34' E 002°38'0 0.0
2017-Sep-16 02:31N 39°34' E 002°38'0 0.0
2017-Sep-16 02:00N 39°34' E 002°38'0 0.0
2017-Sep-16 01:30N 39°34' E 002°38'0 0.0
2017-Sep-16 00:57N 39°34' E 002°38'0 0.0
2017-Sep-16 00:29N 39°34' E 002°38'0 0.0
2017-Sep-16 00:00N 39°34' E 002°38'0 0.0
2017-Sep-15 23:29N 39°34' E 002°38'0 0.0
2017-Sep-15 22:58N 39°34' E 002°38'0 0.0
2017-Sep-15 22:19N 39°34' E 002°38'0 0.0
2017-Sep-15 22:00N 39°34' E 002°38'0 0.0
2017-Sep-15 21:28N 39°34' E 002°38'0 0.0
2017-Sep-15 21:01N 39°34' E 002°38'0 0.0
2017-Sep-15 20:30N 39°34' E 002°38'0 0.0
2017-Sep-15 20:01N 39°34' E 002°38'0 0.0
2017-Sep-15 19:29N 39°34' E 002°38'0 0.0
2017-Sep-15 18:59N 39°34' E 002°38'0 0.0
2017-Sep-15 18:29N 39°34' E 002°38'0 0.0
2017-Sep-15 17:58N 39°34' E 002°38'0 0.0
2017-Sep-15 17:31N 39°34' E 002°38'0 0.0
2017-Sep-15 17:00N 39°34' E 002°38'0 0.0
2017-Sep-15 16:29N 39°34' E 002°38'0 0.0
2017-Sep-15 15:56N 39°34' E 002°38'0 0.0
2017-Sep-15 15:29N 39°34' E 002°38'0 0.0
2017-Sep-15 14:59N 39°34' E 002°38'0 0.0
2017-Sep-15 14:26N 39°34' E 002°38'0 0.0
2017-Sep-15 14:00N 39°34' E 002°38'0 0.0
2017-Sep-15 13:27N 39°34' E 002°38'0 0.0
2017-Sep-15 12:58N 39°34' E 002°38'0 0.0
2017-Sep-15 12:29N 39°34' E 002°38'0 0.0
2017-Sep-15 12:01N 39°34' E 002°38'0 0.0
2017-Sep-15 11:29N 39°34' E 002°38'0 0.0
2017-Sep-15 10:56N 39°34' E 002°38'0 0.0
2017-Sep-15 10:29N 39°34' E 002°38'0 0.0
2017-Sep-15 09:58N 39°34' E 002°38'0 0.0
2017-Sep-15 09:29N 39°34' E 002°38'0 0.0
2017-Sep-15 08:59N 39°34' E 002°38'0 0.0
2017-Sep-15 08:30N 39°34' E 002°38'0 0.3
2017-Sep-15 08:00N 39°34' E 002°38'0 0.4
2017-Sep-15 07:28N 39°34' E 002°38'0 0.0
2017-Sep-15 06:56N 39°34' E 002°38'0 0.0
2017-Sep-15 06:30N 39°34' E 002°38'0 0.0
2017-Sep-15 06:00N 39°34' E 002°38'0 0.0
2017-Sep-15 05:30N 39°34' E 002°38'0 0.0
2017-Sep-15 05:00N 39°34' E 002°38'0 0.0
2017-Sep-15 04:30N 39°34' E 002°38'0 0.0
2017-Sep-15 03:58N 39°34' E 002°38'0 0.0
2017-Sep-15 03:31N 39°34' E 002°38'0 0.0
2017-Sep-15 03:01N 39°34' E 002°38'0 0.0
2017-Sep-15 02:31N 39°34' E 002°38'0 0.0
2017-Sep-15 01:58N 39°34' E 002°38'0 0.0
2017-Sep-15 01:28N 39°34' E 002°38'0 0.0
2017-Sep-15 00:59N 39°34' E 002°38'0 0.0
2017-Sep-15 00:29N 39°34' E 002°38'0 0.0
2017-Sep-14 23:55N 39°34' E 002°38'0 0.0
2017-Sep-14 23:28N 39°34' E 002°38'0 0.0
2017-Sep-14 22:59N 39°34' E 002°38'0 0.0
2017-Sep-14 22:30N 39°34' E 002°38'0 0.0
2017-Sep-14 21:53N 39°34' E 002°38'0 0.0
2017-Sep-14 21:29N 39°34' E 002°38'0 0.0
2017-Sep-14 20:59N 39°34' E 002°38'0 0.0
2017-Sep-14 20:24N 39°34' E 002°38'0 0.0
2017-Sep-14 19:59N 39°34' E 002°38'0 0.0
2017-Sep-14 19:30N 39°34' E 002°38'0 0.0
2017-Sep-14 18:58N 39°34' E 002°38'0 0.0
2017-Sep-14 18:29N 39°34' E 002°38'0 0.0
2017-Sep-14 17:53N 39°34' E 002°38'0 0.0
2017-Sep-14 17:25N 39°34' E 002°38'0 0.0
2017-Sep-14 16:55N 39°34' E 002°38'0 0.0
2017-Sep-14 16:28N 39°34' E 002°38'0 0.0
2017-Sep-14 15:58N 39°34' E 002°38'0 0.0
2017-Sep-14 15:29N 39°34' E 002°38'0 0.0
2017-Sep-14 14:56N 39°34' E 002°38'0 0.0
2017-Sep-14 14:26N 39°34' E 002°38'0 0.0
2017-Sep-14 13:54N 39°34' E 002°38'0 0.0
2017-Sep-14 13:30N 39°34' E 002°38'0 0.0
2017-Sep-14 12:57N 39°34' E 002°38'0 0.0
2017-Sep-14 12:29N 39°34' E 002°38'0 0.0
2017-Sep-14 11:54N 39°34' E 002°38'0 0.0
2017-Sep-14 11:25N 39°34' E 002°38'0 0.0
2017-Sep-14 10:48N 39°34' E 002°38'  
Track history (hours):
 
Tides and Currents Weather Stations Pressure Air Temp Water Temp Dewpoint Dewpoint Depression Visibility Wind Speed Wind Dir Waves Ship Positions

S/y Surama

Last reported at 2017-Sep-24 10:42 UTC. Time now 2017-Sep-25 06:27 UTC.
Position N 40°04' E 003°52'.

Length 40 m; draft 3 m.

Type: Sailing vessel. MMSI: 319073400.

Date/timePositionNaut miles runAvg speedWind from/ knotsBaromVisibWave heightAir tempDewpointWater temp
2017-Sep-24 10:42N 40°04' E 003°52'2 8.2
2017-Sep-24 10:28N 40°03' E 003°49'4 6.5
2017-Sep-24 09:53N 39°60' E 003°48'1 0.0
2017-Sep-23 22:29N 39°60' E 003°49'2 4.9
2017-Sep-23 22:00N 39°59' E 003°46'510.7
2017-Sep-23 21:30N 39°59' E 003°39'510.7
2017-Sep-23 21:00N 39°59' E 003°32'48 1.1
2017-Sep-22 01:57N 39°34' E 002°38'0 0.0
2017-Sep-22 01:28N 39°34' E 002°38'0 0.0
2017-Sep-22 01:00N 39°34' E 002°38'0 0.0
2017-Sep-22 00:30N 39°34' E 002°38'0 0.0
2017-Sep-22 00:00N 39°34' E 002°38'0 0.0
2017-Sep-21 23:28N 39°34' E 002°38'0 0.0
2017-Sep-21 23:00N 39°34' E 002°38'0 0.0
2017-Sep-21 22:30N 39°34' E 002°38'0 0.0
2017-Sep-21 22:00N 39°34' E 002°38'0 0.0
2017-Sep-21 21:28N 39°34' E 002°38'0 0.0
2017-Sep-21 20:53N 39°34' E 002°38'0 0.0
2017-Sep-21 20:21N 39°34' E 002°38'0 0.0
2017-Sep-21 20:00N 39°34' E 002°38'0 0.0
2017-Sep-21 19:30N 39°34' E 002°38'0 0.0
2017-Sep-21 19:00N 39°34' E 002°38'0 0.0
2017-Sep-21 18:30N 39°34' E 002°38'0 0.0
2017-Sep-21 18:00N 39°34' E 002°38'0 0.0
2017-Sep-21 17:28N 39°34' E 002°38'0 0.0
2017-Sep-21 16:58N 39°34' E 002°38'0 0.0
2017-Sep-21 16:30N 39°34' E 002°38'0 0.0
2017-Sep-21 16:00N 39°34' E 002°38'0 0.0
2017-Sep-21 15:26N 39°34' E 002°38'0 0.0
2017-Sep-21 14:58N 39°34' E 002°38'0 0.0
2017-Sep-21 14:30N 39°34' E 002°38'0 0.0
2017-Sep-21 14:00N 39°34' E 002°38'0 0.0
2017-Sep-21 13:30N 39°34' E 002°38'0 0.0
2017-Sep-21 13:00N 39°34' E 002°38'0 0.0
2017-Sep-21 12:30N 39°34' E 002°38'0 0.0
2017-Sep-21 11:58N 39°34' E 002°38'0 0.0
2017-Sep-21 11:26N 39°34' E 002°38'0 0.0
2017-Sep-21 10:48N 39°34' E 002°38'0 0.0
2017-Sep-21 10:30N 39°34' E 002°38'0 0.0
2017-Sep-21 09:55N 39°34' E 002°38'0 0.0
2017-Sep-21 09:24N 39°34' E 002°38'0 0.0
2017-Sep-21 09:00N 39°34' E 002°38'0 0.0
2017-Sep-21 08:27N 39°34' E 002°38'0 0.0
2017-Sep-21 07:58N 39°34' E 002°38'0 0.0
2017-Sep-21 07:30N 39°34' E 002°38'0 0.0
2017-Sep-21 06:48N 39°34' E 002°38'0 0.0
2017-Sep-21 06:30N 39°34' E 002°38'0 0.0
2017-Sep-21 05:55N 39°34' E 002°38'0 0.0
2017-Sep-21 05:28N 39°34' E 002°38'0 0.0
2017-Sep-21 04:58N 39°34' E 002°38'0 0.0
2017-Sep-21 04:29N 39°34' E 002°38'0 0.0
2017-Sep-21 03:59N 39°34' E 002°38'0 0.0
2017-Sep-21 03:29N 39°34' E 002°38'0 0.0
2017-Sep-21 02:59N 39°34' E 002°38'0 0.0
2017-Sep-21 02:29N 39°34' E 002°38'0 0.0
2017-Sep-21 02:00N 39°34' E 002°38'0 0.0
2017-Sep-21 01:30N 39°34' E 002°38'0 0.0
2017-Sep-21 00:57N 39°34' E 002°38'0 0.0
2017-Sep-21 00:29N 39°34' E 002°38'0 0.0
2017-Sep-20 23:59N 39°34' E 002°38'0 0.0
2017-Sep-20 23:27N 39°34' E 002°38'0 0.0
2017-Sep-20 23:00N 39°34' E 002°38'0 0.0
2017-Sep-20 22:30N 39°34' E 002°38'0 0.0
2017-Sep-20 21:58N 39°34' E 002°38'0 0.0
2017-Sep-20 21:29N 39°34' E 002°38'0 0.0
2017-Sep-20 20:54N 39°34' E 002°38'0 0.0
2017-Sep-20 20:30N 39°34' E 002°38'0 0.0
2017-Sep-20 19:59N 39°34' E 002°38'0 0.0
2017-Sep-20 19:30N 39°34' E 002°38'0 0.0
2017-Sep-20 18:55N 39°34' E 002°38'0 0.0
2017-Sep-20 18:30N 39°34' E 002°38'0 0.0
2017-Sep-20 17:59N 39°34' E 002°38'0 0.0
2017-Sep-20 17:28N 39°34' E 002°38'0 0.0
2017-Sep-20 16:58N 39°34' E 002°38'0 0.0
2017-Sep-20 16:23N 39°34' E 002°38'0 0.0
2017-Sep-20 15:59N 39°34' E 002°38'0 0.0
2017-Sep-20 15:28N 39°34' E 002°38'0 0.0
2017-Sep-20 14:55N 39°34' E 002°38'0 0.0
2017-Sep-20 14:00N 39°34' E 002°38'0 0.0
2017-Sep-20 13:28N 39°34' E 002°38'0 0.0
2017-Sep-20 13:00N 39°34' E 002°38'0 0.0
2017-Sep-20 12:17N 39°34' E 002°38'0 0.0
2017-Sep-20 12:00N 39°34' E 002°38'0 0.0
2017-Sep-20 11:30N 39°34' E 002°38'0 0.0
2017-Sep-20 10:59N 39°34' E 002°38'0 0.0
2017-Sep-20 10:31N 39°34' E 002°38'0 0.0
2017-Sep-20 10:00N 39°34' E 002°38'0 0.0
2017-Sep-20 09:24N 39°34' E 002°38'0 0.0
2017-Sep-20 08:55N 39°34' E 002°38'0 0.0
2017-Sep-20 08:25N 39°34' E 002°38'0 0.0
2017-Sep-20 08:01N 39°34' E 002°38'0 0.0
2017-Sep-20 07:28N 39°34' E 002°38'0 0.0
2017-Sep-20 06:58N 39°34' E 002°38'0 0.0
2017-Sep-20 06:27N 39°34' E 002°38'0 0.0
2017-Sep-20 05:56N 39°34' E 002°38'0 0.0
2017-Sep-20 05:29N 39°34' E 002°38'0 0.0
2017-Sep-20 04:55N 39°34' E 002°38'0 0.0
2017-Sep-20 04:28N 39°34' E 002°38'0 0.0
2017-Sep-20 04:00N 39°34' E 002°38'0 0.0
2017-Sep-20 03:30N 39°34' E 002°38'0 0.0
2017-Sep-20 03:01N 39°34' E 002°38'0 0.0
2017-Sep-20 02:25N 39°34' E 002°38'0 0.0
2017-Sep-20 01:58N 39°34' E 002°38'0 0.0
2017-Sep-20 01:26N 39°34' E 002°38'0 0.0
2017-Sep-20 00:59N 39°34' E 002°38'0 0.0
2017-Sep-20 00:28N 39°34' E 002°38'0 0.0
2017-Sep-19 23:58N 39°34' E 002°38'0 0.0
2017-Sep-19 23:27N 39°34' E 002°38'0 0.0
2017-Sep-19 22:58N 39°34' E 002°38'0 0.0
2017-Sep-19 22:28N 39°34' E 002°38'0 0.0
2017-Sep-19 22:00N 39°34' E 002°38'0 0.0
2017-Sep-19 21:31N 39°34' E 002°38'0 0.0
2017-Sep-19 20:58N 39°34' E 002°38'0 0.0
2017-Sep-19 20:31N 39°34' E 002°38'0 0.0
2017-Sep-19 20:01N 39°34' E 002°38'0 0.0
2017-Sep-19 19:30N 39°34' E 002°38'0 0.0
2017-Sep-19 19:00N 39°34' E 002°38'0 0.0
2017-Sep-19 18:25N 39°34' E 002°38'0 0.0
2017-Sep-19 17:58N 39°34' E 002°38'0 0.0
2017-Sep-19 17:30N 39°34' E 002°38'0 0.0
2017-Sep-19 16:59N 39°34' E 002°38'0 0.0
2017-Sep-19 16:28N 39°34' E 002°38'0 0.0
2017-Sep-19 16:01N 39°34' E 002°38'0 0.0
2017-Sep-19 15:31N 39°34' E 002°38'0 0.0
2017-Sep-19 14:57N 39°34' E 002°38'0 0.0
2017-Sep-19 14:23N 39°34' E 002°38'0 0.0
2017-Sep-19 13:59N 39°34' E 002°38'0 0.0
2017-Sep-19 13:28N 39°34' E 002°38'0 0.0
2017-Sep-19 12:58N 39°34' E 002°38'0 0.0
2017-Sep-19 12:29N 39°34' E 002°38'0 0.0
2017-Sep-19 11:59N 39°34' E 002°38'0 0.0
2017-Sep-19 11:28N 39°34' E 002°38'0 0.0
2017-Sep-19 11:00N 39°34' E 002°38'0 0.0
2017-Sep-19 10:31N 39°34' E 002°38'0 0.0
2017-Sep-19 09:59N 39°34' E 002°38'0 0.0
2017-Sep-19 09:30N 39°34' E 002°38'0 0.0
2017-Sep-19 08:58N 39°34' E 002°38'0 0.0
2017-Sep-19 08:29N 39°34' E 002°38'0 0.0
2017-Sep-19 07:59N 39°34' E 002°38'0 0.0
2017-Sep-19 07:29N 39°34' E 002°38'0 0.0
2017-Sep-19 06:58N 39°34' E 002°38'0 0.0
2017-Sep-19 06:28N 39°34' E 002°38'0 0.0
2017-Sep-19 05:58N 39°34' E 002°38'0 0.0
2017-Sep-19 05:28N 39°34' E 002°38'0 0.0
2017-Sep-19 05:00N 39°34' E 002°38'0 0.0
2017-Sep-19 04:26N 39°34' E 002°38'0 0.0
2017-Sep-19 04:00N 39°34' E 002°38'0 0.0
2017-Sep-19 03:29N 39°34' E 002°38'0 0.0
2017-Sep-19 02:58N 39°34' E 002°38'0 0.0
2017-Sep-19 02:31N 39°34' E 002°38'0 0.0
2017-Sep-19 01:58N 39°34' E 002°38'0 0.0
2017-Sep-19 01:28N 39°34' E 002°38'0 0.0
2017-Sep-19 01:00N 39°34' E 002°38'0 0.0
2017-Sep-19 00:30N 39°34' E 002°38'0 0.0
2017-Sep-18 23:58N 39°34' E 002°38'0 0.0
2017-Sep-18 23:30N 39°34' E 002°38'0 0.0
2017-Sep-18 22:59N 39°34' E 002°38'0 0.0
2017-Sep-18 22:30N 39°34' E 002°38'0 0.0
2017-Sep-18 22:00N 39°34' E 002°38'0 0.0
2017-Sep-18 21:29N 39°34' E 002°38'0 0.0
2017-Sep-18 20:59N 39°34' E 002°38'0 0.0
2017-Sep-18 20:28N 39°34' E 002°38'0 0.0
2017-Sep-18 20:00N 39°34' E 002°38'0 0.0
2017-Sep-18 19:28N 39°34' E 002°38'0 0.0
2017-Sep-18 18:59N 39°34' E 002°38'0 0.0
2017-Sep-18 18:29N 39°34' E 002°38'0 0.0
2017-Sep-18 17:59N 39°34' E 002°38'0 0.0
2017-Sep-18 17:28N 39°34' E 002°38'0 0.0
2017-Sep-18 16:59N 39°34' E 002°38'0 0.0
2017-Sep-18 16:26N 39°34' E 002°38'0 0.0
2017-Sep-18 15:59N 39°34' E 002°38'0 0.0
2017-Sep-18 15:29N 39°34' E 002°38'0 0.0
2017-Sep-18 14:59N 39°34' E 002°38'0 0.0
2017-Sep-18 14:28N 39°34' E 002°38'0 0.0
2017-Sep-18 13:52N 39°34' E 002°38'0 0.0
2017-Sep-18 13:31N 39°34' E 002°38'0 0.0
2017-Sep-18 12:58N 39°34' E 002°38'0 0.0
2017-Sep-18 12:16N 39°34' E 002°38'0 0.0
2017-Sep-18 12:00N 39°34' E 002°38'0 0.0
2017-Sep-18 11:27N 39°34' E 002°38'0 0.0
2017-Sep-18 10:59N 39°34' E 002°38'0 0.0
2017-Sep-18 10:29N 39°34' E 002°38'0 0.0
2017-Sep-18 09:56N 39°34' E 002°38'0 0.0
2017-Sep-18 09:27N 39°34' E 002°38'0 0.0
2017-Sep-18 08:56N 39°34' E 002°38'0 0.0
2017-Sep-18 08:29N 39°34' E 002°38'0 0.0
2017-Sep-18 07:55N 39°34' E 002°38'0 0.0
2017-Sep-18 07:29N 39°34' E 002°38'0 0.0
2017-Sep-18 07:00N 39°34' E 002°38'0 0.0
2017-Sep-18 06:30N 39°34' E 002°38'0 0.0
2017-Sep-18 05:59N 39°34' E 002°38'0 0.0
2017-Sep-18 05:29N 39°34' E 002°38'0 0.0
2017-Sep-18 04:59N 39°34' E 002°38'0 0.0
2017-Sep-18 04:29N 39°34' E 002°38'0 0.0
2017-Sep-18 03:59N 39°34' E 002°38'0 0.0
2017-Sep-18 03:25N 39°34' E 002°38'0 0.0
2017-Sep-18 02:58N 39°34' E 002°38'0 0.0
2017-Sep-18 02:31N 39°34' E 002°38'0 0.0
2017-Sep-18 02:01N 39°34' E 002°38'0 0.0
2017-Sep-18 01:29N 39°34' E 002°38'0 0.0
2017-Sep-18 00:59N 39°34' E 002°38'0 0.0
2017-Sep-18 00:29N 39°34' E 002°38'0 0.0
2017-Sep-18 00:01N 39°34' E 002°38'0 0.0
2017-Sep-17 23:30N 39°34' E 002°38'0 0.0
2017-Sep-17 22:50N 39°34' E 002°38'0 0.0
2017-Sep-17 22:26N 39°34' E 002°38'0 0.0
2017-Sep-17 21:59N 39°34' E 002°38'0 0.0
2017-Sep-17 21:28N 39°34' E 002°38'0 0.0
2017-Sep-17 20:56N 39°34' E 002°38'0 0.0
2017-Sep-17 20:31N 39°34' E 002°38'0 0.0
2017-Sep-17 19:59N 39°34' E 002°38'0 0.0
2017-Sep-17 19:28N 39°34' E 002°38'0 0.0
2017-Sep-17 18:58N 39°34' E 002°38'0 0.0
2017-Sep-17 18:29N 39°34' E 002°38'0 0.0
2017-Sep-17 17:58N 39°34' E 002°38'0 0.0
2017-Sep-17 17:27N 39°34' E 002°38'0 0.0
2017-Sep-17 16:55N 39°34' E 002°38'0 0.0
2017-Sep-17 16:28N 39°34' E 002°38'0 0.0
2017-Sep-17 15:57N 39°34' E 002°38'0 0.0
2017-Sep-17 15:27N 39°34' E 002°38'0 0.0
2017-Sep-17 14:56N 39°34' E 002°38'0 0.0
2017-Sep-17 14:31N 39°34' E 002°38'0 0.0
2017-Sep-17 13:59N 39°34' E 002°38'0 0.0
2017-Sep-17 13:30N 39°34' E 002°38'0 0.0
2017-Sep-17 12:58N 39°34' E 002°38'0 0.0
2017-Sep-17 12:30N 39°34' E 002°38'0 0.0
2017-Sep-17 12:00N 39°34' E 002°38'0 0.0
2017-Sep-17 11:30N 39°34' E 002°38'0 0.0
2017-Sep-17 11:00N 39°34' E 002°38'0 0.0
2017-Sep-17 10:29N 39°34' E 002°38'0 0.0
2017-Sep-17 10:00N 39°34' E 002°38'0 0.0
2017-Sep-17 09:27N 39°34' E 002°38'0 0.0
2017-Sep-17 08:58N 39°34' E 002°38'0 0.0
2017-Sep-17 08:28N 39°34' E 002°38'0 0.0
2017-Sep-17 07:55N 39°34' E 002°38'0 0.0
2017-Sep-17 07:22N 39°34' E 002°38'0 0.0
2017-Sep-17 07:00N 39°34' E 002°38'0 0.0
2017-Sep-17 06:31N 39°34' E 002°38'0 0.0
2017-Sep-17 06:00N 39°34' E 002°38'0 0.0
2017-Sep-17 05:30N 39°34' E 002°38'0 0.0
2017-Sep-17 05:01N 39°34' E 002°38'0 0.0
2017-Sep-17 04:25N 39°34' E 002°38'0 0.0
2017-Sep-17 03:59N 39°34' E 002°38'0 0.0
2017-Sep-17 03:30N 39°34' E 002°38'0 0.0
2017-Sep-17 02:59N 39°34' E 002°38'0 0.0
2017-Sep-17 02:29N 39°34' E 002°38'0 0.0
2017-Sep-17 02:00N 39°34' E 002°38'0 0.0
2017-Sep-17 01:30N 39°34' E 002°38'0 0.0
2017-Sep-17 01:00N 39°34' E 002°38'0 0.0
2017-Sep-17 00:27N 39°34' E 002°38'0 0.0
2017-Sep-17 00:00N 39°34' E 002°38'0 0.0
2017-Sep-16 23:30N 39°34' E 002°38'0 0.0
2017-Sep-16 22:58N 39°34' E 002°38'0 0.0
2017-Sep-16 22:28N 39°34' E 002°38'0 0.0
2017-Sep-16 21:46N 39°34' E 002°38'0 0.0
2017-Sep-16 21:31N 39°34' E 002°38'0 0.0
2017-Sep-16 21:00N 39°34' E 002°38'0 0.0
2017-Sep-16 20:30N 39°34' E 002°38'0 0.0
2017-Sep-16 19:58N 39°34' E 002°38'0 0.0
2017-Sep-16 19:30N 39°34' E 002°38'0 0.0
2017-Sep-16 18:58N 39°34' E 002°38'0 0.0
2017-Sep-16 18:24N 39°34' E 002°38'0 0.0
2017-Sep-16 18:00N 39°34' E 002°38'0 0.0
2017-Sep-16 17:25N 39°34' E 002°38'0 0.0
2017-Sep-16 16:59N 39°34' E 002°38'0 0.0
2017-Sep-16 16:28N 39°34' E 002°38'0 0.0
2017-Sep-16 16:01N 39°34' E 002°38'0 0.0
2017-Sep-16 15:31N 39°34' E 002°38'0 0.0
2017-Sep-16 15:00N 39°34' E 002°38'0 0.0
2017-Sep-16 14:29N 39°34' E 002°38'0 0.0
2017-Sep-16 14:00N 39°34' E 002°38'0 0.0
2017-Sep-16 13:29N 39°34' E 002°38'0 0.0
2017-Sep-16 13:00N 39°34' E 002°38'0 0.0
2017-Sep-16 12:18N 39°34' E 002°38'0 0.0
2017-Sep-16 11:57N 39°34' E 002°38'0 0.0
2017-Sep-16 11:30N 39°34' E 002°38'0 0.0
2017-Sep-16 10:55N 39°34' E 002°38'0 0.0
2017-Sep-16 10:28N 39°34' E 002°38'0 0.0
2017-Sep-16 09:53N 39°34' E 002°38'0 0.0
2017-Sep-16 09:29N 39°34' E 002°38'0 0.0
2017-Sep-16 08:57N 39°34' E 002°38'0 0.0
2017-Sep-16 08:29N 39°34' E 002°38'0 0.0
2017-Sep-16 08:00N 39°34' E 002°38'0 0.0
2017-Sep-16 07:30N 39°34' E 002°38'0 0.0
2017-Sep-16 06:59N 39°34' E 002°38'0 0.0
2017-Sep-16 06:30N 39°34' E 002°38'0 0.0
2017-Sep-16 06:00N 39°34' E 002°38'0 0.0
2017-Sep-16 05:29N 39°34' E 002°38'0 0.0
2017-Sep-16 04:59N 39°34' E 002°38'0 0.0
2017-Sep-16 04:29N 39°34' E 002°38'0 0.0
2017-Sep-16 03:53N 39°34' E 002°38'0 0.0
2017-Sep-16 03:28N 39°34' E 002°38'0 0.0
2017-Sep-16 02:55N 39°34' E 002°38'0 0.0
2017-Sep-16 02:31N 39°34' E 002°38'0 0.0
2017-Sep-16 02:00N 39°34' E 002°38'0 0.0
2017-Sep-16 01:30N 39°34' E 002°38'0 0.0
2017-Sep-16 00:57N 39°34' E 002°38'0 0.0
2017-Sep-16 00:29N 39°34' E 002°38'0 0.0
2017-Sep-16 00:00N 39°34' E 002°38'0 0.0
2017-Sep-15 23:29N 39°34' E 002°38'0 0.0
2017-Sep-15 22:58N 39°34' E 002°38'0 0.0
2017-Sep-15 22:19N 39°34' E 002°38'0 0.0
2017-Sep-15 22:00N 39°34' E 002°38'0 0.0
2017-Sep-15 21:28N 39°34' E 002°38'0 0.0
2017-Sep-15 21:01N 39°34' E 002°38'0 0.0
2017-Sep-15 20:30N 39°34' E 002°38'0 0.0
2017-Sep-15 20:01N 39°34' E 002°38'0 0.0
2017-Sep-15 19:29N 39°34' E 002°38'0 0.0
2017-Sep-15 18:59N 39°34' E 002°38'0 0.0
2017-Sep-15 18:29N 39°34' E 002°38'0 0.0
2017-Sep-15 17:58N 39°34' E 002°38'0 0.0
2017-Sep-15 17:31N 39°34' E 002°38'0 0.0
2017-Sep-15 17:00N 39°34' E 002°38'0 0.0
2017-Sep-15 16:29N 39°34' E 002°38'0 0.0
2017-Sep-15 15:56N 39°34' E 002°38'0 0.0
2017-Sep-15 15:29N 39°34' E 002°38'0 0.0
2017-Sep-15 14:59N 39°34' E 002°38'0 0.0
2017-Sep-15 14:26N 39°34' E 002°38'0 0.0
2017-Sep-15 14:00N 39°34' E 002°38'0 0.0
2017-Sep-15 13:27N 39°34' E 002°38'0 0.0
2017-Sep-15 12:58N 39°34' E 002°38'0 0.0
2017-Sep-15 12:29N 39°34' E 002°38'0 0.0
2017-Sep-15 12:01N 39°34' E 002°38'0 0.0
2017-Sep-15 11:29N 39°34' E 002°38'0 0.0
2017-Sep-15 10:56N 39°34' E 002°38'0 0.0
2017-Sep-15 10:29N 39°34' E 002°38'0 0.0
2017-Sep-15 09:58N 39°34' E 002°38'0 0.0
2017-Sep-15 09:29N 39°34' E 002°38'0 0.0
2017-Sep-15 08:59N 39°34' E 002°38'0 0.0
2017-Sep-15 08:30N 39°34' E 002°38'0 0.3
2017-Sep-15 08:00N 39°34' E 002°38'0 0.4
2017-Sep-15 07:28N 39°34' E 002°38'0 0.0
2017-Sep-15 06:56N 39°34' E 002°38'0 0.0
2017-Sep-15 06:30N 39°34' E 002°38'0 0.0
2017-Sep-15 06:00N 39°34' E 002°38'0 0.0
2017-Sep-15 05:30N 39°34' E 002°38'0 0.0
2017-Sep-15 05:00N 39°34' E 002°38'0 0.0
2017-Sep-15 04:30N 39°34' E 002°38'0 0.0
2017-Sep-15 03:58N 39°34' E 002°38'0 0.0
2017-Sep-15 03:31N 39°34' E 002°38'0 0.0
2017-Sep-15 03:01N 39°34' E 002°38'0 0.0
2017-Sep-15 02:31N 39°34' E 002°38'0 0.0
2017-Sep-15 01:58N 39°34' E 002°38'0 0.0
2017-Sep-15 01:28N 39°34' E 002°38'0 0.0
2017-Sep-15 00:59N 39°34' E 002°38'0 0.0
2017-Sep-15 00:29N 39°34' E 002°38'0 0.0
2017-Sep-14 23:55N 39°34' E 002°38'0 0.0
2017-Sep-14 23:28N 39°34' E 002°38'0 0.0
2017-Sep-14 22:59N 39°34' E 002°38'0 0.0
2017-Sep-14 22:30N 39°34' E 002°38'0 0.0
2017-Sep-14 21:53N 39°34' E 002°38'0 0.0
2017-Sep-14 21:29N 39°34' E 002°38'0 0.0
2017-Sep-14 20:59N 39°34' E 002°38'0 0.0
2017-Sep-14 20:24N 39°34' E 002°38'0 0.0
2017-Sep-14 19:59N 39°34' E 002°38'0 0.0
2017-Sep-14 19:30N 39°34' E 002°38'0 0.0
2017-Sep-14 18:58N 39°34' E 002°38'0 0.0
2017-Sep-14 18:29N 39°34' E 002°38'0 0.0
2017-Sep-14 17:53N 39°34' E 002°38'0 0.0
2017-Sep-14 17:25N 39°34' E 002°38'0 0.0
2017-Sep-14 16:55N 39°34' E 002°38'0 0.0
2017-Sep-14 16:28N 39°34' E 002°38'0 0.0
2017-Sep-14 15:58N 39°34' E 002°38'0 0.0
2017-Sep-14 15:29N 39°34' E 002°38'0 0.0
2017-Sep-14 14:56N 39°34' E 002°38'0 0.0
2017-Sep-14 14:26N 39°34' E 002°38'0 0.0
2017-Sep-14 13:54N 39°34' E 002°38'0 0.0
2017-Sep-14 13:30N 39°34' E 002°38'0 0.0
2017-Sep-14 12:57N 39°34' E 002°38'0 0.0
2017-Sep-14 12:29N 39°34' E 002°38'0 0.0
2017-Sep-14 11:54N 39°34' E 002°38'0 0.0
2017-Sep-14 11:25N 39°34' E 002°38'0 0.0
2017-Sep-14 10:48N 39°34' E 002°38'  

Dump ship's entire track history